createdAt,value
2018-06-17T00:00:42.526Z,18.25
2018-06-17T00:03:09.823Z,18.31
2018-06-17T00:05:38.204Z,18.34
2018-06-17T00:08:05.781Z,18.42
2018-06-17T00:10:33.148Z,18.52
2018-06-17T00:13:00.465Z,18.55
2018-06-17T00:15:28.486Z,18.62
2018-06-17T00:17:55.845Z,18.53
2018-06-17T00:20:23.196Z,18.58
2018-06-17T00:22:50.488Z,18.65
2018-06-17T00:25:17.763Z,18.64
2018-06-17T00:27:45.121Z,18.60
2018-06-17T00:30:12.467Z,18.60
2018-06-17T00:32:39.983Z,18.55
2018-06-17T00:35:07.298Z,18.52
2018-06-17T00:37:38.127Z,18.55
2018-06-17T00:40:05.414Z,18.56
2018-06-17T00:42:33.345Z,18.54
2018-06-17T00:47:32.964Z,18.53
2018-06-17T00:50:00.259Z,18.54
2018-06-17T00:52:27.561Z,18.40
2018-06-17T00:54:54.971Z,18.62
2018-06-17T00:57:33.927Z,18.65
2018-06-17T01:00:01.260Z,18.57
2018-06-17T01:02:28.571Z,18.48
2018-06-17T01:04:55.899Z,18.41
2018-06-17T01:07:29.191Z,18.40
2018-06-17T01:09:56.485Z,18.47
2018-06-17T01:12:23.751Z,18.46
2018-06-17T01:14:51.256Z,18.50
2018-06-17T01:17:18.600Z,18.46
2018-06-17T01:19:45.889Z,18.49
2018-06-17T01:22:13.257Z,18.54
2018-06-17T01:24:40.597Z,18.59
2018-06-17T01:27:07.894Z,18.63
2018-06-17T01:29:35.226Z,18.64
2018-06-17T01:32:02.531Z,18.66
2018-06-17T01:34:30.090Z,18.68
2018-06-17T01:36:57.384Z,18.68
2018-06-17T01:39:24.801Z,18.69
2018-06-17T01:41:52.123Z,18.73
2018-06-17T01:44:19.392Z,18.72
2018-06-17T01:46:46.708Z,18.75
2018-06-17T01:49:13.983Z,18.79
2018-06-17T01:51:41.291Z,18.77
2018-06-17T01:54:08.600Z,18.75
2018-06-17T01:56:36.166Z,18.74
2018-06-17T01:59:03.557Z,18.76
2018-06-17T02:01:30.880Z,18.69
2018-06-17T02:04:03.903Z,18.70
2018-06-17T02:06:37.718Z,18.75
2018-06-17T02:09:12.323Z,18.45
2018-06-17T02:11:43.114Z,18.59
2018-06-17T02:14:15.976Z,18.63
2018-06-17T02:16:43.438Z,18.70
2018-06-17T02:19:11.690Z,18.73
2018-06-17T02:21:39.216Z,18.76
2018-06-17T02:24:07.239Z,18.72
2018-06-17T02:26:34.674Z,18.58
2018-06-17T02:29:02.029Z,18.52
2018-06-17T02:31:29.415Z,18.52
2018-06-17T02:34:03.433Z,18.50
2018-06-17T02:36:32.865Z,18.50
2018-06-17T02:39:05.356Z,18.54
2018-06-17T02:41:32.891Z,18.48
2018-06-17T02:44:00.174Z,18.47
2018-06-17T02:46:33.384Z,18.46
2018-06-17T02:49:06.396Z,18.47
2018-06-17T02:51:39.421Z,18.44
2018-06-17T02:54:13.886Z,18.51
2018-06-17T02:56:41.168Z,18.51
2018-06-17T02:59:08.571Z,18.52
2018-06-17T03:01:35.863Z,18.52
2018-06-17T03:04:04.890Z,18.45
2018-06-17T03:06:32.321Z,18.38
2018-06-17T03:08:59.675Z,18.41
2018-06-17T03:11:27.205Z,18.41
2018-06-17T03:13:55.698Z,18.48
2018-06-17T03:16:23.008Z,18.53
2018-06-17T03:18:50.381Z,18.58
2018-06-17T03:21:18.121Z,18.55
2018-06-17T03:23:45.750Z,18.51
2018-06-17T03:26:18.769Z,18.47
2018-06-17T03:28:51.709Z,18.36
2018-06-17T03:31:19.821Z,18.37
2018-06-17T03:33:52.152Z,18.38
2018-06-17T03:36:20.645Z,18.31
2018-06-17T03:38:48.053Z,18.27
2018-06-17T03:41:15.305Z,18.29
2018-06-17T03:43:42.561Z,18.18
2018-06-17T03:46:09.900Z,18.15
2018-06-17T03:48:37.164Z,18.16
2018-06-17T03:51:04.498Z,18.16
2018-06-17T03:53:32.021Z,18.27
2018-06-17T03:55:59.299Z,18.31
2018-06-17T03:58:26.784Z,18.24
2018-06-17T04:00:54.172Z,18.17
2018-06-17T04:03:21.568Z,18.14
2018-06-17T04:05:48.820Z,18.08
2018-06-17T04:08:30.166Z,17.95
2018-06-17T04:10:57.444Z,17.85
2018-06-17T04:13:24.797Z,17.83
2018-06-17T04:15:52.118Z,17.72
2018-06-17T04:18:19.435Z,17.68
2018-06-17T04:20:46.763Z,17.55
2018-06-17T04:23:14.095Z,17.53
2018-06-17T04:25:41.556Z,17.47
2018-06-17T04:28:08.779Z,17.47
2018-06-17T04:30:36.068Z,17.41
2018-06-17T04:33:03.348Z,17.38
2018-06-17T04:35:30.649Z,17.41
2018-06-17T04:37:57.923Z,17.43
2018-06-17T04:40:25.184Z,17.42
2018-06-17T04:42:52.413Z,17.40
2018-06-17T04:45:19.645Z,17.37
2018-06-17T04:47:46.950Z,17.35
2018-06-17T04:50:14.187Z,17.42
2018-06-17T04:52:41.493Z,17.43
2018-06-17T04:55:08.775Z,17.38
2018-06-17T04:57:35.980Z,17.30
2018-06-17T05:00:03.453Z,17.28
2018-06-17T05:02:30.703Z,16.94
2018-06-17T05:04:57.949Z,17.22
2018-06-17T05:07:25.259Z,17.25
2018-06-17T05:09:52.574Z,17.19
2018-06-17T05:12:19.871Z,17.22
2018-06-17T05:14:49.276Z,17.29
2018-06-17T05:17:16.690Z,17.38
2018-06-17T05:19:43.909Z,17.40
2018-06-17T05:22:11.209Z,17.52
2018-06-17T05:24:38.500Z,17.56
2018-06-17T05:27:05.773Z,17.53
2018-06-17T05:29:33.093Z,17.62
2018-06-17T05:32:00.373Z,17.66
2018-06-17T05:34:27.571Z,17.72
2018-06-17T05:36:54.796Z,17.71
2018-06-17T05:39:22.111Z,17.84
2018-06-17T05:41:49.379Z,17.96
2018-06-17T05:44:16.758Z,18.01
2018-06-17T05:46:44.051Z,18.09
2018-06-17T05:49:11.326Z,18.14
2018-06-17T05:51:38.579Z,18.24
2018-06-17T05:54:05.798Z,18.27
2018-06-17T05:56:33.151Z,18.29
2018-06-17T05:59:00.634Z,18.30
2018-06-17T06:01:28.052Z,18.28
2018-06-17T06:03:55.542Z,18.40
2018-06-17T06:06:22.878Z,18.32
2018-06-17T06:08:50.173Z,18.37
2018-06-17T06:11:17.477Z,18.49
2018-06-17T06:13:44.770Z,18.61
2018-06-17T06:16:12.128Z,18.69
2018-06-17T06:18:39.425Z,19.03
2018-06-17T06:21:06.740Z,19.21
2018-06-17T06:23:34.015Z,19.32
2018-06-17T06:26:01.396Z,19.27
2018-06-17T06:28:28.619Z,19.46
2018-06-17T06:30:55.960Z,19.69
2018-06-17T06:33:23.279Z,19.73
2018-06-17T06:35:50.533Z,19.65
2018-06-17T06:38:17.825Z,19.78
2018-06-17T06:40:45.144Z,19.95
2018-06-17T06:43:12.400Z,20.03
2018-06-17T06:45:39.835Z,20.17
2018-06-17T06:48:07.199Z,20.26
2018-06-17T06:50:39.928Z,20.40
2018-06-17T06:53:07.257Z,20.62
2018-06-17T06:55:34.602Z,20.48
2018-06-17T06:58:01.959Z,20.41
2018-06-17T07:00:29.427Z,20.31
2018-06-17T07:03:08.041Z,20.05
2018-06-17T07:05:47.036Z,20.08
2018-06-17T07:08:25.941Z,20.49
2018-06-17T07:10:54.102Z,20.61
2018-06-17T07:13:21.413Z,20.62
2018-06-17T07:16:00.328Z,20.49
2018-06-17T07:18:34.286Z,20.74
2018-06-17T07:21:01.630Z,21.07
2018-06-17T07:23:29.171Z,21.32
2018-06-17T07:26:40.513Z,21.25
2018-06-17T07:29:20.121Z,21.39
2018-06-17T07:31:47.433Z,21.53
2018-06-17T07:34:15.387Z,21.83
2018-06-17T07:36:42.916Z,22.08
2018-06-17T07:40:24.409Z,22.32
2018-06-17T07:42:51.708Z,22.48
2018-06-17T07:45:19.075Z,22.62
2018-06-17T07:47:48.361Z,22.61
2018-06-17T07:50:27.281Z,22.59
2018-06-17T07:53:06.122Z,22.28
2018-06-17T07:55:33.510Z,22.33
2018-06-17T07:58:00.803Z,22.22
2018-06-17T08:00:28.224Z,21.94
2018-06-17T08:02:55.589Z,21.72
2018-06-17T08:05:22.919Z,21.50
2018-06-17T08:07:50.554Z,21.38
2018-06-17T08:10:17.895Z,21.28
2018-06-17T08:12:45.269Z,21.59
2018-06-17T08:15:16.346Z,21.98
2018-06-17T08:17:43.760Z,22.27
2018-06-17T08:20:11.095Z,22.43
2018-06-17T08:22:38.389Z,22.68
2018-06-17T08:25:05.961Z,22.73
2018-06-17T08:27:33.321Z,22.85
2018-06-17T08:30:04.026Z,23.17
2018-06-17T08:32:36.555Z,23.16
2018-06-17T08:35:04.205Z,23.54
2018-06-17T08:37:31.713Z,23.84
2018-06-17T08:39:59.117Z,23.75
2018-06-17T08:42:26.359Z,23.72
2018-06-17T08:44:53.726Z,23.91
2018-06-17T08:47:21.049Z,23.58
2018-06-17T08:49:48.427Z,23.24
2018-06-17T08:52:15.793Z,23.35
2018-06-17T08:54:43.152Z,23.20
2018-06-17T08:57:10.536Z,23.14
2018-06-17T08:59:37.902Z,23.20
2018-06-17T09:02:05.232Z,23.35
2018-06-17T09:04:32.533Z,23.61
2018-06-17T09:06:59.961Z,24.10
2018-06-17T09:09:38.790Z,24.48
2018-06-17T09:12:06.986Z,24.59
2018-06-17T09:14:34.301Z,24.70
2018-06-17T09:17:01.681Z,24.40
2018-06-17T09:19:29.033Z,24.11
2018-06-17T09:21:56.395Z,23.76
2018-06-17T09:24:23.787Z,23.61
2018-06-17T09:26:51.343Z,23.63
2018-06-17T09:29:18.764Z,23.50
2018-06-17T09:31:46.234Z,23.44
2018-06-17T09:34:14.916Z,23.18
2018-06-17T09:36:42.317Z,23.67
2018-06-17T09:39:10.222Z,24.26
2018-06-17T09:41:37.588Z,25.02
2018-06-17T09:44:06.444Z,25.33
2018-06-17T09:46:34.570Z,25.47
2018-06-17T09:49:16.461Z,25.62
2018-06-17T09:51:44.358Z,25.50
2018-06-17T09:54:11.696Z,25.20
2018-06-17T09:56:39.082Z,25.10
2018-06-17T09:59:06.613Z,24.64
2018-06-17T10:01:34.689Z,24.79
2018-06-17T10:04:11.035Z,25.04
2018-06-17T10:06:38.385Z,25.28
2018-06-17T10:09:08.198Z,25.11
2018-06-17T10:11:35.555Z,24.83
2018-06-17T10:14:04.024Z,24.62
2018-06-17T10:16:31.566Z,24.71
2018-06-17T10:18:58.892Z,24.74
2018-06-17T10:21:26.618Z,24.85
2018-06-17T10:23:54.074Z,25.01
2018-06-17T10:26:21.403Z,25.01
2018-06-17T10:28:48.767Z,25.29
2018-06-17T10:31:16.445Z,25.43
2018-06-17T10:33:44.575Z,25.55
2018-06-17T10:36:15.236Z,25.65
2018-06-17T10:38:45.411Z,25.47
2018-06-17T10:41:12.941Z,25.36
2018-06-17T10:43:40.278Z,25.05
2018-06-17T10:46:08.188Z,25.01
2018-06-17T10:48:35.552Z,24.89
2018-06-17T10:51:02.974Z,25.14
2018-06-17T10:53:30.437Z,25.17
2018-06-17T10:55:57.928Z,25.27
2018-06-17T10:58:25.178Z,25.38
2018-06-17T11:00:52.442Z,25.32
2018-06-17T11:03:30.628Z,25.23
2018-06-17T11:05:57.965Z,25.19
2018-06-17T11:08:25.280Z,25.09
2018-06-17T11:10:52.579Z,24.93
2018-06-17T11:13:19.890Z,24.77
2018-06-17T11:15:47.176Z,24.72
2018-06-17T11:18:14.526Z,24.93
2018-06-17T11:20:41.783Z,24.88
2018-06-17T11:23:09.104Z,25.00
2018-06-17T11:25:36.470Z,24.90
2018-06-17T11:28:03.902Z,25.21
2018-06-17T11:30:31.276Z,25.44
2018-06-17T11:32:58.745Z,25.57
2018-06-17T11:35:44.798Z,25.41
2018-06-17T11:38:12.283Z,24.97
2018-06-17T11:40:39.738Z,24.91
2018-06-17T11:43:07.001Z,24.72
2018-06-17T11:45:34.348Z,24.16
2018-06-17T11:48:01.658Z,24.05
2018-06-17T11:50:29.051Z,23.94
2018-06-17T11:52:56.354Z,23.69
2018-06-17T11:55:23.692Z,23.40
2018-06-17T11:57:51.080Z,23.22
2018-06-17T12:00:18.516Z,23.24
2018-06-17T12:02:45.864Z,23.16
2018-06-17T12:05:13.236Z,23.09
2018-06-17T12:07:40.590Z,22.92
2018-06-17T12:10:07.964Z,22.86
2018-06-17T12:12:35.358Z,22.83
2018-06-17T12:15:04.266Z,22.75
2018-06-17T12:17:31.653Z,22.60
2018-06-17T12:19:59.063Z,22.54
2018-06-17T12:22:26.443Z,22.64
2018-06-17T12:24:53.712Z,22.85
2018-06-17T12:27:20.992Z,23.00
2018-06-17T12:29:48.383Z,23.26
2018-06-17T12:32:15.729Z,23.44
2018-06-17T12:34:42.960Z,23.61
2018-06-17T12:37:10.356Z,23.70
2018-06-17T12:39:37.862Z,23.87
2018-06-17T12:42:05.191Z,24.00
2018-06-17T12:44:32.488Z,23.94
2018-06-17T12:46:59.891Z,24.30
2018-06-17T12:49:27.233Z,24.66
2018-06-17T12:51:54.581Z,24.84
2018-06-17T12:54:21.949Z,25.14
2018-06-17T12:56:49.294Z,25.75
2018-06-17T12:59:16.752Z,26.61
2018-06-17T13:01:43.971Z,26.24
2018-06-17T13:04:11.314Z,25.73
2018-06-17T13:06:41.382Z,25.10
2018-06-17T13:09:10.446Z,24.99
2018-06-17T13:11:37.845Z,24.83
2018-06-17T13:14:05.210Z,24.61
2018-06-17T13:16:32.574Z,24.54
2018-06-17T13:19:02.239Z,24.51
2018-06-17T13:21:29.499Z,24.56
2018-06-17T13:23:58.565Z,24.85
2018-06-17T13:26:25.856Z,25.13
2018-06-17T13:28:53.299Z,25.00
2018-06-17T13:31:20.697Z,24.79
2018-06-17T13:33:48.143Z,24.47
2018-06-17T13:36:15.483Z,24.23
2018-06-17T13:38:42.848Z,24.09
2018-06-17T13:41:10.214Z,24.21
2018-06-17T13:43:37.618Z,24.20
2018-06-17T13:46:05.074Z,24.22
2018-06-17T13:48:32.399Z,24.18
2018-06-17T13:50:59.883Z,24.19
2018-06-17T13:53:27.239Z,24.25
2018-06-17T13:55:54.658Z,24.37
2018-06-17T13:58:22.305Z,24.29
2018-06-17T14:00:50.880Z,24.62
2018-06-17T14:03:20.782Z,24.76
2018-06-17T14:05:48.133Z,24.67
2018-06-17T14:08:17.347Z,24.72
2018-06-17T14:10:44.757Z,24.88
2018-06-17T14:13:12.133Z,24.89
2018-06-17T14:15:39.501Z,25.05
2018-06-17T14:18:06.966Z,24.99
2018-06-17T14:20:34.333Z,24.62
2018-06-17T14:23:01.859Z,24.45
2018-06-17T14:25:29.401Z,24.13
2018-06-17T14:27:57.241Z,24.00
2018-06-17T14:30:24.659Z,23.59
2018-06-17T14:32:52.091Z,23.34
2018-06-17T14:35:20.109Z,23.28
2018-06-17T14:37:51.786Z,23.23
2018-06-17T14:40:19.593Z,23.19
2018-06-17T14:42:52.554Z,23.04
2018-06-17T14:45:25.473Z,23.12
2018-06-17T14:47:58.597Z,23.23
2018-06-17T14:50:39.970Z,23.28
2018-06-17T14:53:19.906Z,23.20
2018-06-17T14:55:48.097Z,23.25
2018-06-17T14:58:15.509Z,23.29
2018-06-17T15:00:42.933Z,23.40
2018-06-17T15:03:10.262Z,23.27
2018-06-17T15:05:37.641Z,23.28
2018-06-17T15:08:05.011Z,23.25
2018-06-17T15:10:32.423Z,23.13
2018-06-17T15:12:59.922Z,23.17
2018-06-17T15:15:27.295Z,23.28
2018-06-17T15:17:54.679Z,23.06
2018-06-17T15:20:22.003Z,23.06
2018-06-17T15:22:49.385Z,22.93
2018-06-17T15:25:16.812Z,22.91
2018-06-17T15:27:44.088Z,22.84
2018-06-17T15:30:13.931Z,22.71
2018-06-17T15:32:46.974Z,22.63
2018-06-17T15:35:19.996Z,22.69
2018-06-17T15:37:53.023Z,22.65
2018-06-17T15:40:24.923Z,22.70
2018-06-17T15:42:52.290Z,22.92
2018-06-17T15:45:19.684Z,23.17
2018-06-17T15:47:47.149Z,23.17
2018-06-17T15:50:14.555Z,23.10
2018-06-17T15:52:41.958Z,23.23
2018-06-17T15:55:09.444Z,23.54
2018-06-17T15:57:36.808Z,23.54
2018-06-17T16:00:06.708Z,23.27
2018-06-17T16:02:34.405Z,23.02
2018-06-17T16:05:01.676Z,22.88
2018-06-17T16:07:29.044Z,22.98
2018-06-17T16:09:56.369Z,22.82
2018-06-17T16:12:29.400Z,22.84
2018-06-17T16:15:02.987Z,22.74
2018-06-17T16:17:35.982Z,22.59
2018-06-17T16:20:09.112Z,22.46
2018-06-17T16:22:36.579Z,22.49
2018-06-17T16:25:03.967Z,22.65
2018-06-17T16:27:31.348Z,22.77
2018-06-17T16:29:58.741Z,22.81
2018-06-17T16:32:26.004Z,22.91
2018-06-17T16:34:53.429Z,23.10
2018-06-17T16:37:20.774Z,23.01
2018-06-17T16:39:48.067Z,23.02
2018-06-17T16:42:15.445Z,23.03
2018-06-17T16:44:42.764Z,22.97
2018-06-17T16:47:10.070Z,22.86
2018-06-17T16:49:37.491Z,22.78
2018-06-17T16:52:10.537Z,22.73
2018-06-17T16:54:43.483Z,22.73
2018-06-17T16:57:19.566Z,22.69
2018-06-17T16:59:56.733Z,22.48
2018-06-17T17:02:24.105Z,22.25
2018-06-17T17:04:51.467Z,22.24
2018-06-17T17:07:18.907Z,22.07
2018-06-17T17:09:46.186Z,21.99
2018-06-17T17:12:20.677Z,21.89
2018-06-17T17:14:49.165Z,21.79
2018-06-17T17:17:23.545Z,21.89
2018-06-17T17:19:51.034Z,21.89
2018-06-17T17:22:18.349Z,21.95
2018-06-17T17:24:45.686Z,21.86
2018-06-17T17:27:13.056Z,21.80
2018-06-17T17:29:41.116Z,21.85
2018-06-17T17:32:14.188Z,21.91
2018-06-17T17:34:48.808Z,22.01
2018-06-17T17:37:21.759Z,22.12
2018-06-17T17:39:54.696Z,22.09
2018-06-17T17:42:22.040Z,21.94
2018-06-17T17:44:55.107Z,21.81
2018-06-17T17:47:25.761Z,21.58
2018-06-17T17:49:53.522Z,21.60
2018-06-17T17:52:20.921Z,21.54
2018-06-17T17:54:54.433Z,21.60
2018-06-17T17:57:21.783Z,21.65
2018-06-17T17:59:50.190Z,21.56
2018-06-17T18:02:17.532Z,21.59
2018-06-17T18:04:44.960Z,21.52
2018-06-17T18:07:13.618Z,21.39
2018-06-17T18:09:40.947Z,21.23
2018-06-17T18:12:08.293Z,21.14
2018-06-17T18:14:35.546Z,21.01
2018-06-17T18:17:02.827Z,21.02
2018-06-17T18:19:33.170Z,21.00
2018-06-17T18:22:00.515Z,20.93
2018-06-17T18:24:27.891Z,21.00
2018-06-17T18:27:01.186Z,20.94
2018-06-17T18:29:34.275Z,20.93
2018-06-17T18:32:14.101Z,20.91
2018-06-17T18:34:47.033Z,20.72
2018-06-17T18:37:14.481Z,20.74
2018-06-17T18:39:41.749Z,20.75
2018-06-17T18:42:09.113Z,20.74
2018-06-17T18:44:36.375Z,20.65
2018-06-17T18:47:03.712Z,20.66
2018-06-17T18:49:30.920Z,20.52
2018-06-17T18:51:58.262Z,20.37
2018-06-17T18:54:25.561Z,20.29
2018-06-17T18:56:52.893Z,20.14
2018-06-17T18:59:20.261Z,20.18
2018-06-17T19:01:47.763Z,20.17
2018-06-17T19:04:14.976Z,20.04
2018-06-17T19:06:42.234Z,20.02
2018-06-17T19:09:15.239Z,19.99
2018-06-17T19:11:48.166Z,19.83
2018-06-17T19:14:21.238Z,19.73
2018-06-17T19:16:54.223Z,19.73
2018-06-17T19:19:24.616Z,19.75
2018-06-17T19:21:51.934Z,19.81
2018-06-17T19:24:21.086Z,19.77
2018-06-17T19:26:48.477Z,19.78
2018-06-17T19:29:16.136Z,19.64
2018-06-17T19:31:43.513Z,19.57
2018-06-17T19:34:10.947Z,19.46
2018-06-17T19:36:38.279Z,19.41
2018-06-17T19:39:09.707Z,19.40
2018-06-17T19:41:37.089Z,19.34
2018-06-17T19:44:04.546Z,19.29
2018-06-17T19:46:31.912Z,19.25
2018-06-17T19:48:59.210Z,19.23
2018-06-17T19:51:32.602Z,19.29
2018-06-17T19:54:05.704Z,19.26
2018-06-17T19:56:38.733Z,19.15
2018-06-17T19:59:11.765Z,19.08
2018-06-17T20:01:39.097Z,19.01
2018-06-17T20:04:06.453Z,18.97
2018-06-17T20:06:33.990Z,18.96
2018-06-17T20:09:01.194Z,18.93
2018-06-17T20:11:28.558Z,19.02
2018-06-17T20:13:55.997Z,18.94
2018-06-17T20:16:23.656Z,18.93
2018-06-17T20:18:51.013Z,18.92
2018-06-17T20:21:18.373Z,18.87
2018-06-17T20:23:45.721Z,18.81
2018-06-17T20:26:13.072Z,18.68
2018-06-17T20:28:40.393Z,18.66
2018-06-17T20:31:07.666Z,18.70
2018-06-17T20:33:43.753Z,18.65
2018-06-17T20:36:17.432Z,18.65
2018-06-17T20:38:50.425Z,18.69
2018-06-17T20:41:23.606Z,18.64
2018-06-17T20:46:24.561Z,18.66
2018-06-17T20:48:52.559Z,18.62
2018-06-17T20:51:24.994Z,18.65
2018-06-17T20:53:52.316Z,18.61
2018-06-17T20:56:19.601Z,18.56
2018-06-17T20:58:48.366Z,18.35
2018-06-17T21:01:15.908Z,18.31
2018-06-17T21:03:43.253Z,18.31
2018-06-17T21:06:10.570Z,18.31
2018-06-17T21:08:37.866Z,18.32
2018-06-17T21:11:05.148Z,18.34
2018-06-17T21:13:34.647Z,18.29
2018-06-17T21:16:02.048Z,18.21
2018-06-17T21:18:35.015Z,18.22
2018-06-17T21:21:07.890Z,18.19
2018-06-17T21:23:40.903Z,18.21
2018-06-17T21:26:13.892Z,18.19
2018-06-17T21:28:41.332Z,18.20
2018-06-17T21:31:08.731Z,18.14
2018-06-17T21:33:36.614Z,18.09
2018-06-17T21:36:04.884Z,18.14
2018-06-17T21:38:32.235Z,18.15
2018-06-17T21:40:59.532Z,18.15
2018-06-17T21:43:27.008Z,18.17
2018-06-17T21:45:54.354Z,18.18
2018-06-17T21:48:21.676Z,18.18
2018-06-17T21:50:48.963Z,18.17
2018-06-17T21:53:16.279Z,18.02
2018-06-17T21:55:43.493Z,17.95
2018-06-17T21:58:14.058Z,17.93
2018-06-17T22:00:41.335Z,17.86
2018-06-17T22:03:08.650Z,17.83
2018-06-17T22:05:35.897Z,17.83
2018-06-17T22:08:08.983Z,17.82
2018-06-17T22:10:41.892Z,17.83
2018-06-17T22:13:09.149Z,17.74
2018-06-17T22:15:42.304Z,17.78
2018-06-17T22:18:09.659Z,17.75
2018-06-17T22:20:36.942Z,17.66
2018-06-17T22:23:04.292Z,17.64
2018-06-17T22:25:31.583Z,17.58
2018-06-17T22:27:58.954Z,17.62
2018-06-17T22:30:26.268Z,17.58
2018-06-17T22:32:53.545Z,17.64
2018-06-17T22:35:23.972Z,17.61
2018-06-17T22:37:51.269Z,17.64
2018-06-17T22:40:20.010Z,17.58
2018-06-17T22:42:50.151Z,17.52
2018-06-17T22:45:17.520Z,17.51
2018-06-17T22:47:51.953Z,17.49
2018-06-17T22:50:19.262Z,17.49
2018-06-17T22:52:58.013Z,17.49
2018-06-17T22:55:25.384Z,17.40
2018-06-17T22:57:58.322Z,17.39
2018-06-17T23:00:31.503Z,17.31
2018-06-17T23:03:04.621Z,17.31
2018-06-17T23:05:37.752Z,17.35
2018-06-17T23:08:10.847Z,17.36
2018-06-17T23:10:38.170Z,17.38
2018-06-17T23:13:05.548Z,17.31
2018-06-17T23:15:32.885Z,17.39
2018-06-17T23:18:00.191Z,17.38
2018-06-17T23:20:27.502Z,17.30
2018-06-17T23:22:54.944Z,17.24
2018-06-17T23:25:22.297Z,17.18
2018-06-17T23:27:49.628Z,17.11
2018-06-17T23:30:16.987Z,16.97
2018-06-17T23:32:44.188Z,17.00
2018-06-17T23:35:11.453Z,17.00
2018-06-17T23:37:38.826Z,17.02
2018-06-17T23:40:06.076Z,17.01
2018-06-17T23:42:33.440Z,17.07
2018-06-17T23:45:00.805Z,17.09
2018-06-17T23:47:33.878Z,17.07
2018-06-17T23:50:07.030Z,17.09
2018-06-17T23:52:40.083Z,17.04
2018-06-17T23:55:18.401Z,17.03
2018-06-17T23:57:45.723Z,17.12
